createdAt,value
2018-06-03T00:00:32.600Z,16.87
2018-06-03T00:03:35.057Z,16.80
2018-06-03T00:06:37.560Z,16.87
2018-06-03T00:09:40.207Z,16.82
2018-06-03T00:12:42.755Z,16.80
2018-06-03T00:15:45.205Z,16.79
2018-06-03T00:18:47.716Z,16.82
2018-06-03T00:21:51.011Z,16.78
2018-06-03T00:24:53.516Z,16.69
2018-06-03T00:27:56.025Z,16.69
2018-06-03T00:30:59.940Z,16.63
2018-06-03T00:34:02.497Z,16.54
2018-06-03T00:37:04.991Z,16.47
2018-06-03T00:40:07.501Z,16.44
2018-06-03T00:43:09.960Z,16.42
2018-06-03T00:46:12.447Z,16.43
2018-06-03T00:49:14.992Z,16.41
2018-06-03T00:52:17.455Z,16.33
2018-06-03T00:55:19.946Z,16.28
2018-06-03T00:58:22.426Z,16.28
2018-06-03T01:01:24.887Z,16.30
2018-06-03T01:04:27.381Z,16.24
2018-06-03T01:07:29.848Z,16.16
2018-06-03T01:10:32.365Z,16.13
2018-06-03T01:13:34.826Z,16.13
2018-06-03T01:16:37.331Z,16.07
2018-06-03T01:19:39.851Z,16.06
2018-06-03T01:22:42.405Z,16.08
2018-06-03T01:25:44.897Z,16.03
2018-06-03T01:28:47.381Z,16.04
2018-06-03T01:31:49.858Z,16.05
2018-06-03T01:34:52.347Z,15.96
2018-06-03T01:37:54.840Z,15.93
2018-06-03T01:40:57.339Z,15.96
2018-06-03T01:43:59.832Z,15.92
2018-06-03T01:47:02.312Z,15.98
2018-06-03T01:50:04.804Z,15.95
2018-06-03T01:53:07.248Z,16.01
2018-06-03T01:56:09.753Z,15.95
2018-06-03T01:59:12.233Z,16.00
2018-06-03T02:02:14.740Z,15.99
2018-06-03T02:05:17.342Z,16.05
2018-06-03T02:08:19.932Z,16.11
2018-06-03T02:11:22.372Z,16.19
2018-06-03T02:14:24.856Z,16.15
2018-06-03T02:17:27.347Z,16.24
2018-06-03T02:20:29.822Z,16.14
2018-06-03T02:23:32.321Z,16.13
2018-06-03T02:26:34.823Z,16.14
2018-06-03T02:29:39.193Z,16.12
2018-06-03T02:32:41.648Z,16.12
2018-06-03T02:35:44.127Z,16.05
2018-06-03T02:38:46.615Z,16.02
2018-06-03T02:41:49.139Z,15.98
2018-06-03T02:44:51.751Z,15.95
2018-06-03T02:47:54.183Z,15.92
2018-06-03T02:50:56.660Z,15.85
2018-06-03T02:53:59.132Z,15.88
2018-06-03T02:57:02.937Z,15.91
2018-06-03T03:00:05.509Z,15.84
2018-06-03T03:03:08.016Z,15.88
2018-06-03T03:06:10.523Z,15.90
2018-06-03T03:09:12.984Z,15.89
2018-06-03T03:12:15.464Z,15.90
2018-06-03T03:17:05.411Z,15.97
2018-06-03T03:20:07.925Z,15.97
2018-06-03T03:23:10.372Z,15.92
2018-06-03T03:26:12.853Z,15.85
2018-06-03T03:29:15.327Z,15.82
2018-06-03T03:32:17.812Z,15.77
2018-06-03T03:35:20.322Z,15.82
2018-06-03T03:38:22.758Z,15.95
2018-06-03T03:41:25.242Z,15.98
2018-06-03T03:44:27.727Z,15.97
2018-06-03T03:47:30.194Z,15.93
2018-06-03T03:50:32.685Z,15.90
2018-06-03T03:53:35.158Z,15.90
2018-06-03T03:56:37.613Z,15.97
2018-06-03T03:59:40.105Z,16.02
2018-06-03T04:02:42.541Z,16.11
2018-06-03T04:05:45.043Z,16.22
2018-06-03T04:08:47.526Z,16.37
2018-06-03T04:11:50.044Z,16.56
2018-06-03T04:14:52.530Z,16.77
2018-06-03T04:17:55.000Z,17.22
2018-06-03T04:20:57.487Z,17.69
2018-06-03T04:23:59.961Z,18.24
2018-06-03T04:27:02.378Z,18.68
2018-06-03T04:30:04.867Z,19.01
2018-06-03T04:33:07.317Z,19.31
2018-06-03T04:36:09.803Z,19.61
2018-06-03T04:39:12.247Z,19.39
2018-06-03T04:42:14.729Z,19.03
2018-06-03T04:45:17.267Z,18.81
2018-06-03T04:48:19.725Z,18.68
2018-06-03T04:51:22.214Z,18.40
2018-06-03T04:54:24.700Z,18.12
2018-06-03T04:57:27.260Z,18.02
2018-06-03T05:00:29.728Z,17.92
2018-06-03T05:03:32.192Z,17.83
2018-06-03T05:06:34.698Z,17.93
2018-06-03T05:09:37.141Z,17.99
2018-06-03T05:12:39.672Z,18.09
2018-06-03T05:15:42.165Z,18.04
2018-06-03T05:18:44.610Z,18.00
2018-06-03T05:21:47.115Z,17.97
2018-06-03T05:24:49.595Z,18.10
2018-06-03T05:27:52.067Z,18.06
2018-06-03T05:30:54.578Z,18.18
2018-06-03T05:33:57.053Z,18.12
2018-06-03T05:36:59.629Z,18.32
2018-06-03T05:40:02.078Z,18.48
2018-06-03T05:43:04.553Z,18.67
2018-06-03T05:46:07.118Z,18.72
2018-06-03T05:49:09.635Z,18.85
2018-06-03T05:52:12.169Z,18.71
2018-06-03T05:55:14.604Z,18.87
2018-06-03T05:58:17.088Z,18.99
2018-06-03T06:01:19.575Z,19.09
2018-06-03T06:04:22.020Z,19.42
2018-06-03T06:07:24.468Z,19.57
2018-06-03T06:10:26.924Z,19.90
2018-06-03T06:13:29.414Z,19.82
2018-06-03T06:16:31.916Z,20.14
2018-06-03T06:19:34.396Z,19.95
2018-06-03T06:22:36.882Z,20.33
2018-06-03T06:25:39.459Z,20.54
2018-06-03T06:28:41.964Z,21.22
2018-06-03T06:31:44.431Z,21.08
2018-06-03T06:34:46.940Z,21.22
2018-06-03T06:37:49.395Z,20.95
2018-06-03T06:40:51.997Z,21.69
2018-06-03T06:43:54.475Z,21.76
2018-06-03T06:46:56.923Z,21.75
2018-06-03T06:49:59.476Z,21.92
2018-06-03T06:53:01.905Z,22.38
2018-06-03T06:56:04.412Z,22.18
2018-06-03T06:59:06.858Z,22.14
2018-06-03T07:02:09.348Z,22.57
2018-06-03T07:05:11.808Z,22.86
2018-06-03T07:08:14.294Z,23.08
2018-06-03T07:11:16.798Z,23.11
2018-06-03T07:14:19.335Z,23.22
2018-06-03T07:17:21.812Z,23.07
2018-06-03T07:20:24.252Z,23.11
2018-06-03T07:23:26.950Z,22.57
2018-06-03T07:26:29.408Z,21.49
2018-06-03T07:29:31.907Z,21.11
2018-06-03T07:32:34.403Z,21.36
2018-06-03T07:35:36.887Z,21.09
2018-06-03T07:38:39.379Z,21.47
2018-06-03T07:41:41.833Z,21.10
2018-06-03T07:44:44.314Z,21.59
2018-06-03T07:47:46.829Z,21.53
2018-06-03T07:50:49.327Z,22.08
2018-06-03T07:53:51.832Z,22.78
2018-06-03T07:56:54.273Z,23.06
2018-06-03T07:59:56.835Z,22.96
2018-06-03T08:02:59.305Z,22.99
2018-06-03T08:06:01.800Z,22.33
2018-06-03T08:09:04.235Z,22.39
2018-06-03T08:12:06.718Z,22.26
2018-06-03T08:15:09.221Z,22.48
2018-06-03T08:18:11.712Z,22.20
2018-06-03T08:21:14.222Z,22.09
2018-06-03T08:24:16.770Z,22.18
2018-06-03T08:27:19.227Z,21.91
2018-06-03T08:30:21.720Z,21.88
2018-06-03T08:33:24.180Z,21.94
2018-06-03T08:36:26.668Z,22.70
2018-06-03T08:39:29.100Z,22.11
2018-06-03T08:42:31.676Z,21.82
2018-06-03T08:45:34.187Z,21.81
2018-06-03T08:48:36.677Z,22.71
2018-06-03T08:51:39.199Z,22.56
2018-06-03T08:54:41.731Z,22.65
2018-06-03T08:57:44.272Z,23.20
2018-06-03T09:00:46.817Z,23.25
2018-06-03T09:03:49.312Z,23.41
2018-06-03T09:06:51.841Z,24.08
2018-06-03T09:09:54.305Z,23.72
2018-06-03T09:12:56.763Z,24.03
2018-06-03T09:15:59.331Z,23.69
2018-06-03T09:19:01.826Z,23.60
2018-06-03T09:22:04.315Z,23.46
2018-06-03T09:25:06.855Z,23.30
2018-06-03T09:28:09.331Z,23.46
2018-06-03T09:31:11.887Z,23.44
2018-06-03T09:34:14.392Z,23.43
2018-06-03T09:37:17.039Z,22.92
2018-06-03T09:40:19.506Z,22.11
2018-06-03T09:43:21.996Z,21.84
2018-06-03T09:46:24.542Z,21.10
2018-06-03T09:49:27.023Z,20.76
2018-06-03T09:52:29.553Z,20.66
2018-06-03T09:55:32.047Z,20.69
2018-06-03T09:58:34.523Z,20.78
2018-06-03T10:01:37.034Z,20.92
2018-06-03T10:04:39.506Z,20.79
2018-06-03T10:07:42.013Z,20.78
2018-06-03T10:10:44.492Z,20.78
2018-06-03T10:13:47.007Z,21.01
2018-06-03T10:16:49.433Z,21.19
2018-06-03T10:19:51.936Z,21.21
2018-06-03T10:22:54.443Z,21.32
2018-06-03T10:25:57.017Z,21.30
2018-06-03T10:28:59.571Z,21.34
2018-06-03T10:32:02.047Z,21.69
2018-06-03T10:35:04.553Z,21.94
2018-06-03T10:38:07.064Z,21.91
2018-06-03T10:41:09.618Z,22.10
2018-06-03T10:44:12.192Z,22.24
2018-06-03T10:47:14.658Z,21.97
2018-06-03T10:50:17.225Z,22.20
2018-06-03T10:53:19.701Z,22.52
2018-06-03T10:56:22.187Z,22.51
2018-06-03T10:59:24.723Z,22.86
2018-06-03T11:02:27.217Z,22.58
2018-06-03T11:05:29.735Z,22.58
2018-06-03T11:08:32.209Z,22.54
2018-06-03T11:11:34.709Z,23.07
2018-06-03T11:14:37.322Z,22.68
2018-06-03T11:17:39.832Z,22.80
2018-06-03T11:20:42.336Z,23.11
2018-06-03T11:23:44.905Z,22.94
2018-06-03T11:26:47.414Z,23.16
2018-06-03T11:29:49.983Z,22.81
2018-06-03T11:32:52.529Z,22.86
2018-06-03T11:35:55.059Z,23.44
2018-06-03T11:38:57.550Z,23.54
2018-06-03T11:42:00.107Z,23.87
2018-06-03T11:45:02.663Z,24.15
2018-06-03T11:48:05.198Z,23.70
2018-06-03T11:51:07.763Z,23.97
2018-06-03T11:54:10.284Z,23.52
2018-06-03T11:57:12.792Z,23.54
2018-06-03T12:00:15.297Z,23.57
2018-06-03T12:03:17.835Z,23.36
2018-06-03T12:06:20.349Z,23.54
2018-06-03T12:09:22.835Z,23.38
2018-06-03T12:12:25.365Z,23.18
2018-06-03T12:15:27.842Z,23.41
2018-06-03T12:18:30.400Z,23.18
2018-06-03T12:21:32.903Z,23.54
2018-06-03T12:24:35.475Z,23.61
2018-06-03T12:27:38.004Z,23.70
2018-06-03T12:30:40.538Z,23.77
2018-06-03T12:33:43.090Z,24.16
2018-06-03T12:36:45.610Z,24.64
2018-06-03T12:39:48.082Z,24.56
2018-06-03T12:42:50.545Z,23.86
2018-06-03T12:45:53.024Z,23.60
2018-06-03T12:48:55.679Z,24.05
2018-06-03T12:51:58.150Z,24.28
2018-06-03T12:55:00.682Z,24.08
2018-06-03T12:58:03.233Z,24.16
2018-06-03T13:01:05.709Z,24.32
2018-06-03T13:04:08.268Z,23.59
2018-06-03T13:07:10.779Z,23.77
2018-06-03T13:10:13.260Z,24.69
2018-06-03T13:13:15.799Z,24.46
2018-06-03T13:16:18.325Z,25.35
2018-06-03T13:19:20.814Z,24.99
2018-06-03T13:22:23.314Z,25.09
2018-06-03T13:25:25.849Z,25.38
2018-06-03T13:28:28.308Z,25.00
2018-06-03T13:31:30.814Z,25.60
2018-06-03T13:34:33.289Z,26.13
2018-06-03T13:37:35.861Z,25.53
2018-06-03T13:40:38.428Z,25.81
2018-06-03T13:43:40.946Z,25.63
2018-06-03T13:46:43.399Z,25.67
2018-06-03T13:49:45.933Z,25.24
2018-06-03T13:52:48.449Z,25.08
2018-06-03T13:55:50.911Z,25.88
2018-06-03T13:58:53.440Z,26.02
2018-06-03T14:01:56.000Z,26.27
2018-06-03T14:04:58.465Z,26.42
2018-06-03T14:08:00.994Z,25.98
2018-06-03T14:11:03.524Z,25.36
2018-06-03T14:14:06.090Z,25.42
2018-06-03T14:17:08.560Z,25.65
2018-06-03T14:20:11.061Z,25.58
2018-06-03T14:23:13.535Z,24.80
2018-06-03T14:26:16.096Z,25.00
2018-06-03T14:29:18.644Z,24.92
2018-06-03T14:32:21.144Z,24.85
2018-06-03T14:35:23.653Z,24.75
2018-06-03T14:38:26.194Z,24.62
2018-06-03T14:41:28.704Z,24.62
2018-06-03T14:44:31.274Z,24.14
2018-06-03T14:47:33.759Z,24.02
2018-06-03T14:50:36.285Z,24.44
2018-06-03T14:53:38.796Z,24.33
2018-06-03T14:56:41.356Z,24.27
2018-06-03T14:59:43.811Z,24.44
2018-06-03T15:02:46.310Z,24.41
2018-06-03T15:05:48.860Z,24.25
2018-06-03T15:08:51.404Z,23.98
2018-06-03T15:11:53.875Z,23.91
2018-06-03T15:14:56.405Z,23.88
2018-06-03T15:17:58.888Z,23.55
2018-06-03T15:21:01.495Z,23.68
2018-06-03T15:24:04.025Z,23.61
2018-06-03T15:27:06.568Z,23.40
2018-06-03T15:30:09.083Z,23.47
2018-06-03T15:33:11.601Z,23.49
2018-06-03T15:36:14.131Z,23.35
2018-06-03T15:39:21.403Z,23.30
2018-06-03T15:42:23.912Z,23.43
2018-06-03T15:45:26.448Z,23.52
2018-06-03T15:48:29.019Z,23.50
2018-06-03T15:51:31.558Z,23.59
2018-06-03T15:54:34.035Z,23.67
2018-06-03T15:57:36.544Z,23.57
2018-06-03T16:00:39.046Z,23.61
2018-06-03T16:03:41.528Z,23.87
2018-06-03T16:06:44.035Z,23.69
2018-06-03T16:09:46.540Z,23.74
2018-06-03T16:12:49.044Z,23.75
2018-06-03T16:15:51.589Z,23.67
2018-06-03T16:18:54.056Z,23.57
2018-06-03T16:21:56.591Z,23.47
2018-06-03T16:24:59.118Z,23.37
2018-06-03T16:28:01.599Z,23.34
2018-06-03T16:31:04.136Z,23.41
2018-06-03T16:34:06.671Z,23.35
2018-06-03T16:37:09.281Z,23.12
2018-06-03T16:40:11.768Z,23.13
2018-06-03T16:43:14.292Z,23.23
2018-06-03T16:46:16.787Z,23.27
2018-06-03T16:49:19.308Z,23.29
2018-06-03T16:52:21.773Z,23.41
2018-06-03T16:55:24.330Z,23.40
2018-06-03T16:58:26.829Z,23.45
2018-06-03T17:01:29.342Z,23.31
2018-06-03T17:04:31.878Z,23.44
2018-06-03T17:07:34.349Z,23.17
2018-06-03T17:10:36.861Z,22.97
2018-06-03T17:13:39.397Z,22.80
2018-06-03T17:16:41.987Z,22.65
2018-06-03T17:19:44.454Z,22.67
2018-06-03T17:22:46.993Z,22.60
2018-06-03T17:25:49.602Z,22.54
2018-06-03T17:28:52.172Z,22.43
2018-06-03T17:31:54.723Z,22.50
2018-06-03T17:34:57.274Z,22.53
2018-06-03T17:37:59.811Z,22.51
2018-06-03T17:41:02.318Z,22.46
2018-06-03T17:44:04.861Z,22.23
2018-06-03T17:47:07.447Z,22.21
2018-06-03T17:50:09.921Z,22.32
2018-06-03T17:53:12.446Z,22.33
2018-06-03T17:56:15.016Z,22.57
2018-06-03T17:59:17.555Z,23.18
2018-06-03T18:02:20.114Z,23.69
2018-06-03T18:05:22.624Z,24.00
2018-06-03T18:08:25.096Z,23.96
2018-06-03T18:11:27.633Z,23.53
2018-06-03T18:14:31.008Z,23.07
2018-06-03T18:17:36.142Z,22.82
2018-06-03T18:20:42.183Z,22.54
2018-06-03T18:23:44.768Z,22.40
2018-06-03T18:26:47.220Z,22.52
2018-06-03T18:29:49.724Z,22.71
2018-06-03T18:32:52.289Z,22.68
2018-06-03T18:35:54.823Z,22.56
2018-06-03T18:38:57.345Z,22.37
2018-06-03T18:41:59.818Z,22.12
2018-06-03T18:45:02.354Z,21.92
2018-06-03T18:48:04.858Z,21.77
2018-06-03T18:51:26.580Z,21.62
2018-06-03T18:54:29.064Z,21.29
2018-06-03T18:57:31.546Z,21.18
2018-06-03T19:00:34.075Z,20.99
2018-06-03T19:03:36.613Z,20.84
2018-06-03T19:06:39.182Z,20.69
2018-06-03T19:09:41.656Z,20.49
2018-06-03T19:12:44.204Z,20.31
2018-06-03T19:15:47.738Z,20.19
2018-06-03T19:18:50.343Z,20.09
2018-06-03T19:21:52.907Z,19.97
2018-06-03T19:24:55.512Z,19.87
2018-06-03T19:27:58.084Z,19.79
2018-06-03T19:31:01.939Z,19.59
2018-06-03T19:34:04.450Z,19.44
2018-06-03T19:37:07.034Z,19.32
2018-06-03T19:40:09.558Z,19.25
2018-06-03T19:43:12.045Z,19.14
2018-06-03T19:46:14.587Z,19.03
2018-06-03T19:49:17.223Z,18.99
2018-06-03T19:52:19.767Z,18.98
2018-06-03T19:55:22.295Z,18.94
2018-06-03T19:58:24.805Z,18.83
2018-06-03T20:01:27.345Z,18.81
2018-06-03T20:04:29.848Z,18.73
2018-06-03T20:07:32.448Z,18.67
2018-06-03T20:10:35.036Z,18.58
2018-06-03T20:13:37.549Z,18.51
2018-06-03T20:16:40.122Z,18.47
2018-06-03T20:19:42.659Z,18.48
2018-06-03T20:22:45.159Z,18.41
2018-06-03T20:25:47.705Z,18.35
2018-06-03T20:28:56.401Z,18.32
2018-06-03T20:31:58.938Z,18.27
2018-06-03T20:35:01.411Z,18.22
2018-06-03T20:38:03.965Z,18.18
2018-06-03T20:41:06.452Z,18.19
2018-06-03T20:44:08.994Z,18.17
2018-06-03T20:51:27.454Z,18.11
2018-06-03T20:54:31.098Z,18.05
2018-06-03T20:57:34.735Z,18.00
2018-06-03T21:00:38.390Z,18.00
2018-06-03T21:03:42.168Z,17.96
2018-06-03T21:06:45.918Z,17.93
2018-06-03T21:09:49.565Z,17.88
2018-06-03T21:12:53.228Z,17.88
2018-06-03T21:15:56.913Z,17.82
2018-06-03T21:19:00.554Z,17.78
2018-06-03T21:22:04.223Z,17.75
2018-06-03T21:25:07.933Z,17.73
2018-06-03T21:28:11.804Z,17.72
2018-06-03T21:31:15.394Z,17.67
2018-06-03T21:34:19.085Z,17.65
2018-06-03T21:37:22.841Z,17.61
2018-06-03T21:40:26.528Z,17.60
2018-06-03T21:43:31.184Z,17.59
2018-06-03T21:46:34.887Z,17.58
2018-06-03T21:49:38.521Z,17.53
2018-06-03T21:52:42.264Z,17.50
2018-06-03T21:55:46.040Z,17.48
2018-06-03T21:58:49.670Z,17.46
2018-06-03T22:01:53.419Z,17.50
2018-06-03T22:04:57.076Z,17.50
2018-06-03T22:08:00.765Z,17.48
2018-06-03T22:11:04.485Z,17.47
2018-06-03T22:14:08.243Z,17.45
2018-06-03T22:17:12.070Z,17.49
2018-06-03T22:20:15.655Z,17.46
2018-06-03T22:23:20.000Z,17.40
2018-06-03T22:26:23.765Z,17.38
2018-06-03T22:29:27.399Z,17.36
2018-06-03T22:32:31.005Z,17.32
2018-06-03T22:35:34.726Z,17.31
2018-06-03T22:38:38.365Z,17.30
2018-06-03T22:41:42.082Z,17.28
2018-06-03T22:44:45.691Z,17.22
2018-06-03T22:47:49.323Z,17.23
2018-06-03T22:50:52.965Z,17.19
2018-06-03T22:53:56.583Z,17.15
2018-06-03T22:57:41.705Z,17.16
2018-06-03T23:00:45.301Z,17.17
2018-06-03T23:03:48.940Z,17.19
2018-06-03T23:06:52.526Z,17.16
2018-06-03T23:09:56.166Z,17.14
2018-06-03T23:12:59.818Z,17.08
2018-06-03T23:16:03.375Z,17.06
2018-06-03T23:19:06.575Z,17.01
2018-06-03T23:22:10.156Z,17.01
2018-06-03T23:25:13.868Z,17.02
2018-06-03T23:28:17.638Z,17.00
2018-06-03T23:31:21.344Z,16.96
2018-06-03T23:34:24.940Z,16.93
2018-06-03T23:37:28.670Z,16.90
2018-06-03T23:40:32.261Z,16.89
2018-06-03T23:43:35.934Z,16.85
2018-06-03T23:46:39.556Z,16.80
2018-06-03T23:49:43.159Z,16.78
2018-06-03T23:52:46.810Z,16.76
2018-06-03T23:55:50.417Z,16.71
2018-06-03T23:58:54.060Z,16.74
